createdAt,value
2018-12-03T00:00:15.427Z,9.2
2018-12-03T00:05:42.963Z,9.2
2018-12-03T00:11:11.730Z,9.2
2018-12-03T00:16:39.423Z,9.2
2018-12-03T00:22:08.201Z,9.2
2018-12-03T00:27:35.982Z,9.2
2018-12-03T00:33:03.728Z,9.3
2018-12-03T00:38:32.490Z,9.3
2018-12-03T00:44:01.268Z,9.3
2018-12-03T00:49:30.154Z,9.3
2018-12-03T00:54:58.788Z,9.3
2018-12-03T01:00:28.440Z,9.3
2018-12-03T01:05:56.354Z,9.3
2018-12-03T01:11:25.115Z,9.3
2018-12-03T01:16:52.934Z,9.3
2018-12-03T01:22:21.615Z,9.3
2018-12-03T01:27:50.411Z,9.3
2018-12-03T01:33:19.185Z,9.3
2018-12-03T01:38:46.928Z,9.3
2018-12-03T01:44:14.747Z,9.3
2018-12-03T01:49:42.671Z,9.3
2018-12-03T01:55:11.293Z,9.3
2018-12-03T02:00:39.113Z,9.3
2018-12-03T02:06:07.852Z,9.3
2018-12-03T02:11:36.874Z,9.3
2018-12-03T02:17:04.408Z,9.4
2018-12-03T02:22:32.176Z,9.4
2018-12-03T02:28:00.930Z,9.4
2018-12-03T02:33:28.735Z,9.4
2018-12-03T02:38:56.795Z,9.4
2018-12-03T02:44:25.366Z,9.4
2018-12-03T02:49:54.430Z,9.5
2018-12-03T02:55:22.351Z,9.5
2018-12-03T03:00:50.650Z,9.5
2018-12-03T03:06:18.445Z,9.5
2018-12-03T03:11:47.269Z,9.6
2018-12-03T03:17:16.083Z,9.6
2018-12-03T03:22:44.864Z,9.6
2018-12-03T03:28:13.944Z,9.6
2018-12-03T03:33:42.496Z,9.6
2018-12-03T03:39:11.299Z,9.6
2018-12-03T03:44:40.149Z,9.6
2018-12-03T03:50:08.172Z,9.6
2018-12-03T03:55:35.645Z,9.7
2018-12-03T04:01:04.472Z,9.7
2018-12-03T04:06:32.305Z,9.7
2018-12-03T04:12:01.337Z,9.7
2018-12-03T04:17:29.160Z,9.7
2018-12-03T04:22:56.726Z,9.8
2018-12-03T04:28:25.486Z,9.8
2018-12-03T04:33:54.301Z,9.8
2018-12-03T04:39:22.340Z,9.8
2018-12-03T04:44:50.938Z,9.8
2018-12-03T04:50:19.742Z,9.8
2018-12-03T04:55:48.768Z,9.8
2018-12-03T05:01:16.329Z,9.8
2018-12-03T05:06:45.119Z,9.8
2018-12-03T05:12:12.942Z,9.9
2018-12-03T05:17:40.822Z,9.9
2018-12-03T05:23:09.555Z,9.9
2018-12-03T05:28:37.461Z,9.9
2018-12-03T05:34:05.209Z,10
2018-12-03T05:39:33.017Z,10
2018-12-03T05:45:01.947Z,10
2018-12-03T05:50:30.626Z,10
2018-12-03T05:55:58.465Z,10
2018-12-03T06:01:26.271Z,10
2018-12-03T06:06:54.068Z,10
2018-12-03T06:12:22.897Z,10
2018-12-03T06:17:50.975Z,10
2018-12-03T06:23:18.771Z,10
2018-12-03T06:28:46.330Z,10
2018-12-03T06:34:15.168Z,9.9
2018-12-03T06:39:43.051Z,9.9
2018-12-03T06:45:11.938Z,9.9
2018-12-03T06:50:39.606Z,9.9
2018-12-03T06:56:07.426Z,9.9
2018-12-03T07:01:36.217Z,9.9
2018-12-03T07:07:05.062Z,9.9
2018-12-03T07:12:32.818Z,9.9
2018-12-03T07:18:00.930Z,9.9
2018-12-03T07:23:29.419Z,9.8
2018-12-03T07:28:57.251Z,9.8
2018-12-03T07:39:54.124Z,9.8
2018-12-03T07:45:22.651Z,9.8
2018-12-03T07:50:50.462Z,9.8
2018-12-03T07:56:19.323Z,9.8
2018-12-03T08:01:49.208Z,9.8
2018-12-03T08:07:16.914Z,9.8
2018-12-03T08:12:44.729Z,9.8
2018-12-03T08:18:13.519Z,9.9
2018-12-03T08:23:42.417Z,9.8
2018-12-03T08:29:11.147Z,9.8
2018-12-03T08:34:40.221Z,9.8
2018-12-03T08:40:07.731Z,9.8
2018-12-03T08:45:36.563Z,9.8
2018-12-03T08:51:04.311Z,9.8
2018-12-03T08:56:32.376Z,9.8
2018-12-03T09:02:00.924Z,9.8
2018-12-03T09:07:29.737Z,9.8
2018-12-03T09:12:57.566Z,9.8
2018-12-03T09:18:25.369Z,9.8
2018-12-03T09:23:54.127Z,9.8
2018-12-03T09:29:22.922Z,9.8
2018-12-03T09:34:51.900Z,9.8
2018-12-03T09:40:20.520Z,9.8
2018-12-03T09:45:48.404Z,9.8
2018-12-03T09:51:17.147Z,9.8
2018-12-03T09:56:44.903Z,9.8
2018-12-03T10:02:12.737Z,9.8
2018-12-03T10:07:41.491Z,9.8
2018-12-03T10:13:09.513Z,9.8
2018-12-03T10:18:37.097Z,9.7
2018-12-03T10:24:05.854Z,9.7
2018-12-03T10:29:34.638Z,9.7
2018-12-03T10:35:02.772Z,9.7
2018-12-03T10:40:30.551Z,9.7
2018-12-03T10:45:58.024Z,9.8
2018-12-03T10:51:26.328Z,9.9
2018-12-03T10:56:57.799Z,9.9
2018-12-03T11:02:23.393Z,9.9
2018-12-03T11:07:52.233Z,9.9
2018-12-03T11:13:21.084Z,9.9
2018-12-03T11:18:49.815Z,9.9
2018-12-03T11:24:18.979Z,9.8
2018-12-03T11:29:47.212Z,9.8
2018-12-03T11:35:15.262Z,9.9
2018-12-03T11:40:44.048Z,9.9
2018-12-03T11:46:11.914Z,9.9
2018-12-03T11:51:39.770Z,9.9
2018-12-03T11:57:08.389Z,9.9
2018-12-03T12:02:36.284Z,9.8
2018-12-03T12:08:04.232Z,9.8
2018-12-03T12:13:31.890Z,9.8
2018-12-03T12:18:59.839Z,9.8
2018-12-03T12:24:28.395Z,9.8
2018-12-03T12:29:56.587Z,9.8
2018-12-03T12:35:25.155Z,9.8
2018-12-03T12:40:53.045Z,9.8
2018-12-03T12:46:21.784Z,9.8
2018-12-03T12:51:51.658Z,9.8
2018-12-03T12:57:18.362Z,9.7
2018-12-03T13:02:46.088Z,9.7
2018-12-03T13:08:14.393Z,9.7
2018-12-03T13:13:41.708Z,9.7
2018-12-03T13:19:13.445Z,9.7
2018-12-03T13:24:38.496Z,9.7
2018-12-03T13:30:06.038Z,9.7
2018-12-03T13:35:35.260Z,9.7
2018-12-03T13:41:02.601Z,9.7
2018-12-03T13:46:31.752Z,9.6
2018-12-03T13:51:58.906Z,9.6
2018-12-03T13:57:31.026Z,9.6
2018-12-03T14:02:54.549Z,9.6
2018-12-03T14:08:24.237Z,9.6
2018-12-03T14:13:50.842Z,9.6
2018-12-03T14:19:19.088Z,9.6
2018-12-03T14:24:49.212Z,9.6
2018-12-03T14:30:15.604Z,9.6
2018-12-03T14:35:48.503Z,9.6
2018-12-03T14:41:12.239Z,9.5
2018-12-03T14:46:40.181Z,9.5
2018-12-03T14:52:08.248Z,9.5
2018-12-03T14:57:35.393Z,9.4
2018-12-03T15:03:03.200Z,9.4
2018-12-03T15:08:31.911Z,9.4
2018-12-03T15:14:01.583Z,9.4
2018-12-03T15:19:29.828Z,9.4
2018-12-03T15:24:57.928Z,9.3
2018-12-03T15:30:25.130Z,9.3
2018-12-03T15:35:52.726Z,9.3
2018-12-03T15:41:20.559Z,9.2
2018-12-03T15:46:51.746Z,9.2
2018-12-03T15:52:15.952Z,9.2
2018-12-03T15:57:45.359Z,9.1
2018-12-03T16:03:13.926Z,9.1
2018-12-03T16:08:42.965Z,9
2018-12-03T16:14:10.140Z,9
2018-12-03T16:19:38.402Z,8.9
2018-12-03T16:25:08.112Z,8.9
2018-12-03T16:30:34.097Z,8.8
2018-12-03T16:36:02.913Z,8.8
2018-12-03T16:41:29.793Z,8.8
2018-12-03T16:46:57.549Z,8.8
2018-12-03T16:52:24.790Z,8.8
2018-12-03T16:57:53.938Z,8.8
2018-12-03T17:03:23.647Z,8.8
2018-12-03T17:08:52.031Z,8.7
2018-12-03T17:14:19.598Z,8.7
2018-12-03T17:19:50.367Z,8.7
2018-12-03T17:25:15.043Z,8.7
2018-12-03T17:30:42.691Z,8.7
2018-12-03T17:36:11.984Z,8.7
2018-12-03T17:41:41.214Z,8.7
2018-12-03T17:47:08.086Z,8.7
2018-12-03T17:52:36.497Z,8.7
2018-12-03T17:58:03.146Z,8.7
2018-12-03T18:03:30.886Z,8.7
2018-12-03T18:08:58.622Z,8.7
2018-12-03T18:14:31.624Z,8.6
2018-12-03T18:19:56.251Z,8.6
2018-12-03T18:25:25.447Z,8.5
2018-12-03T18:30:53.233Z,8.4
2018-12-03T18:36:23.196Z,8.3
2018-12-03T18:41:56.422Z,8.2
2018-12-03T18:47:18.211Z,8.2
2018-12-03T18:52:46.835Z,8.1
2018-12-03T18:58:17.253Z,8.1
2018-12-03T19:03:44.599Z,8.1
2018-12-03T19:09:11.268Z,8
2018-12-03T19:14:39.402Z,8
2018-12-03T19:20:08.325Z,8
2018-12-03T19:25:37.070Z,7.9
2018-12-03T19:31:04.716Z,7.9
2018-12-03T19:36:31.938Z,7.9
2018-12-03T19:42:01.263Z,7.9
2018-12-03T19:47:27.194Z,7.9
2018-12-03T19:52:55.120Z,7.9
2018-12-03T19:58:22.890Z,7.9
2018-12-03T20:03:50.299Z,7.9
2018-12-03T20:09:17.689Z,7.9
2018-12-03T20:14:47.484Z,7.9
2018-12-03T20:20:15.209Z,7.9
2018-12-03T20:25:44.536Z,7.9
2018-12-03T20:31:13.236Z,7.9
2018-12-03T20:36:40.073Z,7.9
2018-12-03T20:42:08.402Z,7.9
2018-12-03T20:47:36.653Z,7.8
2018-12-03T20:53:18.109Z,7.8
2018-12-03T20:58:32.279Z,7.8
2018-12-03T21:04:01.633Z,7.8
2018-12-03T21:09:27.781Z,7.7
2018-12-03T21:14:57.719Z,7.7
2018-12-03T21:20:24.698Z,7.7
2018-12-03T21:25:53.918Z,7.7
2018-12-03T21:31:21.905Z,7.7
2018-12-03T21:36:49.501Z,7.7
2018-12-03T21:42:18.394Z,7.6
2018-12-03T21:47:49.022Z,7.6
2018-12-03T21:53:15.367Z,7.6
2018-12-03T21:58:44.445Z,7.6
2018-12-03T22:04:10.740Z,7.6
2018-12-03T22:09:39.081Z,7.6
2018-12-03T22:15:05.690Z,7.6
2018-12-03T22:20:34.265Z,7.5
2018-12-03T22:26:01.855Z,7.5
2018-12-03T22:31:31.506Z,7.5
2018-12-03T22:36:57.666Z,7.5
2018-12-03T22:42:24.648Z,7.5
2018-12-03T22:47:53.501Z,7.5
2018-12-03T22:53:23.533Z,7.5
2018-12-03T22:58:49.393Z,7.5
